createdAt,value
2023-05-11T00:00:52.009Z,3.28
2023-05-11T00:03:59.805Z,3.88
2023-05-11T00:07:08.683Z,3.90
2023-05-11T00:10:17.383Z,3.40
2023-05-11T00:13:24.039Z,3.78
2023-05-11T00:16:29.548Z,3.67
2023-05-11T00:19:37.833Z,3.33
2023-05-11T00:22:48.909Z,3.55
2023-05-11T00:25:54.630Z,3.78
2023-05-11T00:29:04.530Z,3.55
2023-05-11T00:32:15.449Z,3.55
2023-05-11T00:35:25.706Z,3.65
2023-05-11T00:38:33.673Z,3.70
2023-05-11T00:41:40.896Z,3.33
2023-05-11T00:44:46.624Z,3.63
2023-05-11T00:47:53.318Z,4.47
2023-05-11T00:50:58.991Z,3.53
2023-05-11T00:54:13.608Z,3.92
2023-05-11T00:57:21.529Z,3.53
2023-05-11T01:00:28.273Z,4.72
2023-05-11T01:03:34.761Z,3.63
2023-05-11T01:06:48.596Z,3.80
2023-05-11T01:10:02.969Z,3.65
2023-05-11T01:13:13.989Z,3.95
2023-05-11T01:16:24.911Z,3.92
2023-05-11T01:19:38.750Z,4.15
2023-05-11T01:22:55.079Z,4.22
2023-05-11T01:26:11.775Z,4.18
2023-05-11T01:29:32.855Z,3.47
2023-05-11T01:32:42.614Z,3.53
2023-05-11T01:35:52.265Z,3.50
2023-05-11T01:39:02.756Z,3.88
2023-05-11T01:42:11.789Z,3.55
2023-05-11T01:45:22.159Z,3.80
2023-05-11T01:48:40.502Z,3.13
2023-05-11T01:51:49.777Z,3.75
2023-05-11T01:54:58.232Z,3.70
2023-05-11T01:58:04.120Z,2.63
2023-05-11T02:01:09.944Z,4.15
2023-05-11T02:04:19.144Z,3.58
2023-05-11T02:07:30.963Z,3.47
2023-05-11T02:10:36.207Z,3.92
2023-05-11T02:13:42.718Z,4.38
2023-05-11T02:16:49.710Z,3.70
2023-05-11T02:19:58.479Z,3.83
2023-05-11T02:23:04.108Z,4.10
2023-05-11T02:26:09.925Z,3.78
2023-05-11T02:29:15.163Z,3.83
2023-05-11T02:32:23.583Z,3.95
2023-05-11T02:35:32.485Z,4.10
2023-05-11T02:38:38.662Z,3.53
2023-05-11T02:41:46.417Z,3.88
2023-05-11T02:44:57.343Z,3.85
2023-05-11T02:48:06.992Z,4.15
2023-05-11T02:51:17.360Z,4.03
2023-05-11T02:54:22.805Z,3.83
2023-05-11T02:57:34.825Z,3.50
2023-05-11T03:00:42.108Z,4.72
2023-05-11T03:03:48.029Z,3.42
2023-05-11T03:06:56.205Z,4.43
2023-05-11T03:10:01.660Z,3.72
2023-05-11T03:13:11.030Z,3.75
2023-05-11T03:16:21.181Z,4.18
2023-05-11T03:19:30.546Z,3.83
2023-05-11T03:22:39.704Z,3.90
2023-05-11T03:25:47.403Z,3.50
2023-05-11T03:28:54.156Z,3.67
2023-05-11T03:32:00.030Z,3.90
2023-05-11T03:35:06.816Z,3.85
2023-05-11T03:38:15.673Z,3.88
2023-05-11T03:41:23.444Z,3.47
2023-05-11T03:44:35.138Z,4.07
2023-05-11T03:47:43.726Z,3.72
2023-05-11T03:50:49.744Z,3.90
2023-05-11T03:53:59.175Z,3.22
2023-05-11T03:57:04.191Z,3.50
2023-05-11T04:00:13.327Z,3.25
2023-05-11T04:03:19.975Z,3.95
2023-05-11T04:06:25.396Z,3.88
2023-05-11T04:09:33.150Z,4.30
2023-05-11T04:12:41.031Z,3.50
2023-05-11T04:15:48.960Z,4.47
2023-05-11T04:18:54.365Z,3.63
2023-05-11T04:21:59.451Z,3.70
2023-05-11T04:25:09.969Z,4.03
2023-05-11T04:28:14.990Z,3.97
2023-05-11T04:31:20.934Z,3.90
2023-05-11T04:34:27.007Z,4.00
2023-05-11T04:37:34.673Z,3.53
2023-05-11T04:40:45.312Z,3.80
2023-05-11T04:43:51.905Z,3.38
2023-05-11T04:46:58.840Z,3.55
2023-05-11T04:50:09.072Z,3.78
2023-05-11T04:53:17.081Z,4.20
2023-05-11T04:56:26.757Z,3.97
2023-05-11T04:59:33.384Z,3.88
2023-05-11T05:02:38.946Z,3.65
2023-05-11T05:05:44.426Z,3.92
2023-05-11T05:08:49.799Z,3.65
2023-05-11T05:12:06.406Z,4.05
2023-05-11T05:15:21.561Z,3.97
2023-05-11T05:18:31.387Z,4.05
2023-05-11T05:21:47.030Z,3.67
2023-05-11T05:24:53.945Z,3.92
2023-05-11T05:28:05.218Z,3.67
2023-05-11T05:31:10.903Z,3.78
2023-05-11T05:34:19.435Z,3.58
2023-05-11T05:37:34.583Z,3.25
2023-05-11T05:40:41.024Z,4.18
2023-05-11T05:43:48.979Z,3.03
2023-05-11T05:46:55.045Z,3.90
2023-05-11T05:50:00.711Z,4.00
2023-05-11T05:53:07.797Z,3.50
2023-05-11T05:56:22.198Z,3.30
2023-05-11T05:59:34.637Z,3.03
2023-05-11T06:02:40.198Z,4.35
2023-05-11T06:05:45.949Z,3.67
2023-05-11T06:08:56.137Z,3.97
2023-05-11T06:12:04.451Z,3.58
2023-05-11T06:15:13.429Z,3.95
2023-05-11T06:18:24.453Z,3.67
2023-05-11T06:21:30.119Z,4.10
2023-05-11T06:24:36.070Z,3.90
2023-05-11T06:27:45.236Z,3.70
2023-05-11T06:30:56.456Z,3.70
2023-05-11T06:34:06.221Z,3.53
2023-05-11T06:37:20.522Z,3.45
2023-05-11T06:40:26.213Z,3.83
2023-05-11T06:43:32.847Z,4.63
2023-05-11T06:46:41.029Z,3.90
2023-05-11T06:49:48.162Z,4.18
2023-05-11T06:52:55.583Z,4.35
2023-05-11T06:56:01.824Z,4.00
2023-05-11T06:59:11.071Z,3.78
2023-05-11T07:02:27.639Z,3.90
2023-05-11T07:05:35.244Z,3.63
2023-05-11T07:08:41.090Z,3.60
2023-05-11T07:11:46.579Z,3.85
2023-05-11T07:14:52.355Z,3.65
2023-05-11T07:18:05.286Z,3.58
2023-05-11T07:21:15.822Z,4.43
2023-05-11T07:24:21.487Z,3.97
2023-05-11T07:27:27.363Z,3.80
2023-05-11T07:30:42.773Z,3.80
2023-05-11T07:33:52.246Z,3.83
2023-05-11T07:37:04.225Z,3.53
2023-05-11T07:40:11.421Z,4.03
2023-05-11T07:43:20.805Z,3.83
2023-05-11T07:46:27.110Z,3.50
2023-05-11T07:49:43.514Z,3.70
2023-05-11T07:52:51.557Z,3.20
2023-05-11T07:55:59.844Z,3.35
2023-05-11T07:59:06.827Z,3.13
2023-05-11T08:02:14.573Z,3.38
2023-05-11T08:05:24.272Z,3.85
2023-05-11T08:08:30.736Z,3.40
2023-05-11T08:11:39.017Z,4.15
2023-05-11T08:14:47.326Z,3.13
2023-05-11T08:17:55.992Z,3.20
2023-05-11T08:21:08.179Z,3.72
2023-05-11T08:24:15.745Z,3.30
2023-05-11T08:27:25.932Z,3.45
2023-05-11T08:30:33.272Z,3.15
2023-05-11T08:33:39.298Z,3.58
2023-05-11T08:36:47.975Z,6.97
2023-05-11T08:40:14.977Z,3.30
2023-05-11T08:43:24.100Z,3.65
2023-05-11T08:46:33.547Z,3.70
2023-05-11T08:49:42.815Z,3.45
2023-05-11T08:52:48.620Z,3.30
2023-05-11T08:56:01.491Z,3.63
2023-05-11T08:59:12.967Z,3.38
2023-05-11T09:02:20.325Z,3.47
2023-05-11T09:05:29.392Z,3.42
2023-05-11T09:08:40.669Z,3.55
2023-05-11T09:11:49.702Z,3.38
2023-05-11T09:15:02.076Z,3.60
2023-05-11T09:18:09.214Z,3.60
2023-05-11T09:21:17.085Z,3.42
2023-05-11T09:24:24.664Z,3.42
2023-05-11T09:27:36.420Z,3.78
2023-05-11T09:30:43.830Z,3.35
2023-05-11T09:33:50.213Z,3.42
2023-05-11T09:37:00.239Z,3.50
2023-05-11T09:40:26.429Z,3.17
2023-05-11T09:43:48.941Z,4.20
2023-05-11T09:46:58.660Z,3.22
2023-05-11T09:50:25.684Z,3.38
2023-05-11T09:53:43.579Z,3.25
2023-05-11T09:56:50.199Z,3.03
2023-05-11T10:00:01.165Z,2.97
2023-05-11T10:03:10.060Z,3.05
2023-05-11T10:06:20.286Z,3.72
2023-05-11T10:09:27.668Z,3.03
2023-05-11T10:12:38.650Z,2.92
2023-05-11T10:15:47.445Z,3.53
2023-05-11T10:18:57.244Z,3.65
2023-05-11T10:22:06.015Z,3.17
2023-05-11T10:25:14.348Z,3.40
2023-05-11T10:28:25.036Z,3.17
2023-05-11T10:31:42.265Z,3.20
2023-05-11T10:34:48.878Z,3.15
2023-05-11T10:37:58.565Z,3.22
2023-05-11T10:41:12.327Z,3.33
2023-05-11T10:44:31.014Z,3.17
2023-05-11T10:48:03.574Z,3.22
2023-05-11T10:51:35.171Z,3.38
2023-05-11T10:54:48.705Z,3.30
2023-05-11T10:58:06.702Z,3.15
2023-05-11T11:01:38.914Z,3.25
2023-05-11T11:04:45.659Z,3.03
2023-05-11T11:08:04.444Z,3.22
2023-05-11T11:11:32.145Z,2.83
2023-05-11T11:14:56.481Z,3.03
2023-05-11T11:18:18.499Z,2.85
2023-05-11T11:21:38.672Z,3.45
2023-05-11T11:24:51.210Z,2.95
2023-05-11T11:28:00.937Z,3.00
2023-05-11T11:31:24.852Z,3.03
2023-05-11T11:34:40.059Z,3.00
2023-05-11T11:38:05.675Z,2.88
2023-05-11T11:41:14.114Z,3.38
2023-05-11T11:44:26.107Z,3.33
2023-05-11T11:47:34.528Z,2.90
2023-05-11T11:50:41.509Z,3.30
2023-05-11T11:54:10.807Z,2.92
2023-05-11T11:57:32.767Z,2.97
2023-05-11T12:00:45.542Z,3.22
2023-05-11T12:04:02.781Z,3.22
2023-05-11T12:07:11.601Z,2.90
2023-05-11T12:10:22.759Z,3.30
2023-05-11T12:13:43.251Z,3.20
2023-05-11T12:17:03.933Z,3.20
2023-05-11T12:20:19.953Z,3.05
2023-05-11T12:23:26.846Z,2.83
2023-05-11T12:26:34.245Z,3.13
2023-05-11T12:29:47.320Z,3.30
2023-05-11T12:36:09.129Z,3.00
2023-05-11T12:39:20.430Z,3.40
2023-05-11T12:42:33.222Z,2.83
2023-05-11T12:45:44.486Z,3.25
2023-05-11T12:48:59.964Z,3.47
2023-05-11T12:52:12.719Z,2.67
2023-05-11T12:55:31.705Z,3.20
2023-05-11T12:58:42.367Z,2.90
2023-05-11T13:01:51.092Z,2.88
2023-05-11T13:04:57.145Z,2.83
2023-05-11T13:08:07.246Z,3.25
2023-05-11T13:11:27.740Z,2.88
2023-05-11T13:14:35.964Z,2.78
2023-05-11T13:17:50.619Z,3.05
2023-05-11T13:24:22.793Z,3.20
2023-05-11T13:27:33.913Z,2.90
2023-05-11T13:30:41.890Z,3.20
2023-05-11T13:33:50.162Z,2.88
2023-05-11T13:36:58.202Z,3.03
2023-05-11T13:40:07.010Z,3.15
2023-05-11T13:43:14.599Z,3.03
2023-05-11T13:46:23.059Z,3.70
2023-05-11T13:49:33.519Z,3.15
2023-05-11T13:52:42.024Z,3.05
2023-05-11T13:55:50.489Z,2.90
2023-05-11T13:58:59.256Z,3.25
2023-05-11T14:02:05.642Z,2.85
2023-05-11T14:05:14.135Z,2.95
2023-05-11T14:08:21.266Z,3.08
2023-05-11T14:11:40.663Z,2.92
2023-05-11T14:14:46.543Z,3.70
2023-05-11T14:17:54.328Z,3.05
2023-05-11T14:21:00.985Z,3.03
2023-05-11T14:24:12.595Z,3.63
2023-05-11T14:27:23.509Z,3.00
2023-05-11T14:30:35.794Z,3.60
2023-05-11T14:33:44.758Z,3.40
2023-05-11T14:36:52.994Z,3.22
2023-05-11T14:40:09.240Z,2.83
2023-05-11T14:43:20.590Z,2.67
2023-05-11T14:46:28.275Z,2.90
2023-05-11T14:49:38.504Z,3.15
2023-05-11T14:52:44.812Z,2.85
2023-05-11T14:55:53.705Z,2.85
2023-05-11T14:59:04.968Z,3.25
2023-05-11T15:02:12.713Z,2.97
2023-05-11T15:05:18.764Z,3.20
2023-05-11T15:08:30.196Z,3.08
2023-05-11T15:11:37.671Z,3.25
2023-05-11T15:14:47.693Z,2.97
2023-05-11T15:17:53.299Z,2.95
2023-05-11T15:21:02.272Z,2.67
2023-05-11T15:24:10.816Z,3.10
2023-05-11T15:27:18.326Z,3.03
2023-05-11T15:30:29.939Z,3.00
2023-05-11T15:33:37.331Z,2.63
2023-05-11T15:36:46.205Z,3.10
2023-05-11T15:39:51.933Z,3.10
2023-05-11T15:43:00.560Z,3.17
2023-05-11T15:46:16.575Z,2.65
2023-05-11T15:49:23.180Z,2.80
2023-05-11T15:52:32.866Z,3.00
2023-05-11T15:55:46.295Z,2.90
2023-05-11T15:58:52.468Z,2.60
2023-05-11T16:02:04.470Z,2.80
2023-05-11T16:05:10.945Z,2.70
2023-05-11T16:08:19.999Z,2.60
2023-05-11T16:11:26.522Z,2.60
2023-05-11T16:14:31.765Z,2.67
2023-05-11T16:17:41.671Z,2.33
2023-05-11T16:20:47.159Z,2.60
2023-05-11T16:23:55.297Z,3.90
2023-05-11T16:27:00.374Z,3.05
2023-05-11T16:30:22.383Z,2.97
2023-05-11T16:33:32.738Z,3.10
2023-05-11T16:36:39.715Z,2.85
2023-05-11T16:39:45.485Z,2.53
2023-05-11T16:42:50.837Z,2.80
2023-05-11T16:46:01.222Z,3.25
2023-05-11T16:49:09.521Z,2.90
2023-05-11T16:52:19.216Z,2.58
2023-05-11T16:55:26.437Z,2.47
2023-05-11T16:58:31.851Z,3.05
2023-05-11T17:01:36.931Z,2.50
2023-05-11T17:04:45.186Z,2.22
2023-05-11T17:07:50.288Z,3.05
2023-05-11T17:11:00.044Z,2.75
2023-05-11T17:14:05.970Z,2.63
2023-05-11T17:17:11.847Z,2.40
2023-05-11T17:20:21.322Z,2.53
2023-05-11T17:23:29.551Z,2.90
2023-05-11T17:26:47.184Z,2.85
2023-05-11T17:29:58.642Z,2.38
2023-05-11T17:33:04.021Z,2.20
2023-05-11T17:39:23.890Z,2.15
2023-05-11T17:42:29.920Z,2.20
2023-05-11T17:45:36.316Z,2.45
2023-05-11T17:48:44.783Z,3.40
2023-05-11T17:51:51.368Z,3.20
2023-05-11T17:54:59.433Z,2.22
2023-05-11T17:58:05.671Z,2.85
2023-05-11T18:01:17.132Z,2.53
2023-05-11T18:04:22.641Z,2.40
2023-05-11T18:07:27.970Z,2.20
2023-05-11T18:10:36.345Z,2.30
2023-05-11T18:13:41.592Z,2.35
2023-05-11T18:16:49.558Z,2.80
2023-05-11T18:19:56.059Z,2.20
2023-05-11T18:23:03.427Z,3.03
2023-05-11T18:26:11.688Z,2.20
2023-05-11T18:29:22.174Z,2.45
2023-05-11T18:32:27.598Z,2.22
2023-05-11T18:35:39.325Z,2.53
2023-05-11T18:38:45.144Z,2.42
2023-05-11T18:41:54.870Z,2.83
2023-05-11T18:45:08.217Z,2.30
2023-05-11T18:48:15.027Z,2.35
2023-05-11T18:51:23.035Z,2.58
2023-05-11T18:54:28.516Z,3.15
2023-05-11T18:57:37.581Z,2.58
2023-05-11T19:00:43.651Z,2.60
2023-05-11T19:03:49.238Z,2.85
2023-05-11T19:06:56.108Z,2.53
2023-05-11T19:10:01.669Z,2.58
2023-05-11T19:13:15.773Z,2.35
2023-05-11T19:16:29.713Z,2.25
2023-05-11T19:19:37.393Z,2.38
2023-05-11T19:22:50.976Z,3.63
2023-05-11T19:25:56.424Z,2.45
2023-05-11T19:29:05.283Z,2.90
2023-05-11T19:32:16.403Z,2.30
2023-05-11T19:35:21.741Z,2.53
2023-05-11T19:38:27.663Z,2.58
2023-05-11T19:41:36.739Z,2.80
2023-05-11T19:44:45.711Z,2.88
2023-05-11T19:47:51.230Z,2.60
2023-05-11T19:50:56.691Z,2.80
2023-05-11T19:54:02.020Z,2.92
2023-05-11T19:57:09.747Z,2.80
2023-05-11T20:00:18.559Z,3.00
2023-05-11T20:03:27.971Z,2.50
2023-05-11T20:06:34.558Z,2.28
2023-05-11T20:09:41.914Z,2.70
2023-05-11T20:12:51.470Z,2.50
2023-05-11T20:16:14.249Z,2.83
2023-05-11T20:19:19.959Z,3.08
2023-05-11T20:22:25.720Z,2.50
2023-05-11T20:25:31.602Z,2.65
2023-05-11T20:28:36.645Z,2.03
2023-05-11T20:31:46.733Z,2.58
2023-05-11T20:34:52.927Z,2.30
2023-05-11T20:38:00.461Z,2.58
2023-05-11T20:41:05.815Z,2.58
2023-05-11T20:44:13.982Z,2.50
2023-05-11T20:47:22.223Z,2.50
2023-05-11T20:50:32.184Z,2.67
2023-05-11T20:53:37.424Z,2.30
2023-05-11T20:56:43.140Z,3.10
2023-05-11T21:02:59.409Z,2.60
2023-05-11T21:06:07.146Z,2.90
2023-05-11T21:09:33.299Z,2.60
2023-05-11T21:12:42.245Z,2.90
2023-05-11T21:15:52.918Z,2.20
2023-05-11T21:19:02.578Z,2.45
2023-05-11T21:22:09.863Z,2.50
2023-05-11T21:25:16.791Z,2.45
2023-05-11T21:28:22.187Z,2.88
2023-05-11T21:31:30.348Z,2.38
2023-05-11T21:34:39.688Z,2.45
2023-05-11T21:37:50.185Z,2.70
2023-05-11T21:40:56.852Z,2.78
2023-05-11T21:44:02.914Z,2.97
2023-05-11T21:47:08.873Z,2.78
2023-05-11T21:50:17.560Z,2.60
2023-05-11T21:53:24.103Z,3.42
2023-05-11T21:56:32.784Z,3.08
2023-05-11T21:59:44.852Z,3.50
2023-05-11T22:02:52.708Z,3.65
2023-05-11T22:06:01.127Z,2.38
2023-05-11T22:09:07.982Z,2.50
2023-05-11T22:12:13.817Z,2.75
2023-05-11T22:15:22.868Z,2.50
2023-05-11T22:18:30.559Z,2.65
2023-05-11T22:21:41.785Z,2.83
2023-05-11T22:24:59.631Z,2.30
2023-05-11T22:28:08.100Z,2.67
2023-05-11T22:31:15.788Z,2.88
2023-05-11T22:34:24.608Z,2.55
2023-05-11T22:38:12.196Z,2.60
2023-05-11T22:41:24.643Z,2.75
2023-05-11T22:44:33.167Z,2.78
2023-05-11T22:47:39.628Z,2.60
2023-05-11T22:50:47.703Z,2.88
2023-05-11T22:53:57.601Z,2.88
2023-05-11T22:57:03.849Z,2.92
2023-05-11T23:00:13.497Z,2.92
2023-05-11T23:03:19.822Z,2.85
2023-05-11T23:09:59.211Z,2.85
2023-05-11T23:13:08.960Z,2.85
2023-05-11T23:16:19.404Z,3.05
2023-05-11T23:19:27.779Z,3.17
2023-05-11T23:22:32.815Z,3.42
2023-05-11T23:25:41.394Z,3.22
2023-05-11T23:28:46.890Z,2.80
2023-05-11T23:31:56.860Z,3.83
2023-05-11T23:35:04.238Z,3.70
2023-05-11T23:38:09.745Z,3.20
2023-05-11T23:41:19.436Z,3.40
2023-05-11T23:44:27.731Z,3.25
2023-05-11T23:47:38.119Z,2.90
2023-05-11T23:50:48.789Z,3.10
2023-05-11T23:53:57.106Z,3.67
2023-05-11T23:57:10.728Z,3.08
